Snow/Ice From: 16-12-2017 16:00 Until: 17-12-2017 16:00 warning for: Snow/Ice Level: Yellow info button

Although rather usual in this region, locally or potentially dangerous phenomena are expected. (such as local winds, summer thunderstorms, rising streams or high waves) Be aware and pay attention to the latest weather updates, especially if you carry out activities exposed to weather or close to a stream or shoreline. 


Meteo18 Weather Cam more information Meteo18 Weather Cam


Thunder radar more information blitzortung!


warning for Snow/Ice more information rain snow radar


Visit our other weather sites:

Template documentation
and downloads

And another site



Weather Underground History page Text

Daily Summary for June 10, 2017 Units:  Metric    English   Both
« Previous Day
Next Day »
Daily Weekly Monthly Yearly Custom
  High: Low: Average:
Temperature: 28.4 °C 11.6 °C 20.3 °C
Dew Point: 16.2 °C 10.2 °C 12.9 °C
Humidity: 94 % 36 % 66 %
Wind Speed: 9.7 km/h 0.0 km/h 1.7 km/h
Wind Gust: 16.1 km/h - -
Wind:- - SSW
Pressure: 1021.9 hPa 1019.9 hPa -
Precipitation: 0.0 mm    
Historical Graphs
 
 
Tabular Data for June 10, 2017
Time Temperature Dew Point Pressure Wind Wind Speed Wind Gust Humidity Rainfall Rate (Hourly)
00:02 16.2 °C 12.9 °C 1019.9 hPa Calm     81 % 0.0 mm
00:07 16.1 °C 12.8 °C 1019.9 hPa Calm     81 % 0.0 mm
00:12 16.1 °C 13.0 °C 1019.9 hPa Calm     82 % 0.0 mm
00:17 15.9 °C 12.8 °C 1019.9 hPa Calm     82 % 0.0 mm
00:22 15.8 °C 12.5 °C 1019.9 hPa Calm     81 % 0.0 mm
00:27 15.8 °C 12.7 °C 1019.9 hPa Calm     82 % 0.0 mm
00:32 15.8 °C 12.7 °C 1019.9 hPa Calm     82 % 0.0 mm
00:37 15.8 °C 12.9 °C 1019.9 hPa Calm     83 % 0.0 mm
00:42 15.6 °C 12.7 °C 1019.9 hPa Calm     83 % 0.0 mm
00:52 15.4 °C 12.7 °C 1019.9 hPa Calm     84 % 0.0 mm
00:57 15.3 °C 12.8 °C 1019.9 hPa Calm     85 % 0.0 mm
01:02 15.3 °C 12.8 °C 1019.9 hPa Calm     85 % 0.0 mm
01:07 15.2 °C 12.7 °C 1020.2 hPa Calm     85 % 0.0 mm
01:12 15.2 °C 12.7 °C 1020.2 hPa Calm     85 % 0.0 mm
01:22 15.2 °C 12.7 °C 1020.2 hPa Calm     85 % 0.0 mm
01:27 15.1 °C 12.8 °C 1020.2 hPa Calm     86 % 0.0 mm
01:32 15.0 °C 12.7 °C 1020.2 hPa Calm     86 % 0.0 mm
01:37 14.9 °C 12.6 °C 1020.2 hPa Calm     86 % 0.0 mm
01:42 14.8 °C 12.7 °C 1020.2 hPa Calm     87 % 0.0 mm
01:47 14.8 °C 12.7 °C 1020.2 hPa Calm     87 % 0.0 mm
01:52 14.7 °C 12.6 °C 1020.2 hPa Calm     87 % 0.0 mm
01:57 14.7 °C 12.6 °C 1020.2 hPa Calm     87 % 0.0 mm
02:02 14.6 °C 12.5 °C 1020.2 hPa Calm     87 % 0.0 mm
02:07 14.6 °C 12.6 °C 1020.2 hPa Calm     88 % 0.0 mm
02:12 14.4 °C 12.3 °C 1020.2 hPa Calm     87 % 0.0 mm
02:17 14.4 °C 12.4 °C 1020.2 hPa Calm     88 % 0.0 mm
02:22 14.3 °C 12.3 °C 1020.2 hPa Calm     88 % 0.0 mm
02:32 14.2 °C 12.2 °C 1020.2 hPa Calm     88 % 0.0 mm
02:37 14.0 °C 12.0 °C 1020.2 hPa Calm     88 % 0.0 mm
02:42 13.9 °C 11.9 °C 1020.2 hPa Calm     88 % 0.0 mm
02:47 13.8 °C 12.0 °C 1020.2 hPa Calm     89 % 0.0 mm
02:52 13.8 °C 12.0 °C 1020.2 hPa Calm     89 % 0.0 mm
02:57 13.7 °C 11.9 °C 1020.2 hPa Calm     89 % 0.0 mm
03:02 13.6 °C 11.8 °C 1020.2 hPa Calm     89 % 0.0 mm
03:07 13.6 °C 11.8 °C 1020.2 hPa Calm     89 % 0.0 mm
03:12 13.3 °C 11.5 °C 1020.2 hPa Calm     89 % 0.0 mm
03:17 13.3 °C 11.7 °C 1020.2 hPa Calm     90 % 0.0 mm
03:22 13.2 °C 11.6 °C 1020.2 hPa Calm     90 % 0.0 mm
03:27 13.1 °C 11.5 °C 1020.2 hPa Calm     90 % 0.0 mm
03:32 13.0 °C 11.4 °C 1020.2 hPa Calm     90 % 0.0 mm
03:37 12.9 °C 11.5 °C 1020.2 hPa Calm     91 % 0.0 mm
03:42 12.9 °C 11.5 °C 1019.9 hPa Calm     91 % 0.0 mm
03:47 12.8 °C 11.4 °C 1020.2 hPa Calm     91 % 0.0 mm
03:52 12.7 °C 11.3 °C 1020.2 hPa Calm     91 % 0.0 mm
03:57 12.7 °C 11.4 °C 1020.2 hPa Calm     92 % 0.0 mm
04:02 12.8 °C 11.5 °C 1020.2 hPa Calm     92 % 0.0 mm
04:07 12.8 °C 11.4 °C 1020.2 hPa Calm     91 % 0.0 mm
04:12 12.7 °C 11.3 °C 1020.2 hPa Calm     91 % 0.0 mm
04:17 12.6 °C 11.2 °C 1020.2 hPa Calm     91 % 0.0 mm
04:22 12.6 °C 11.3 °C 1020.2 hPa Calm     92 % 0.0 mm
04:27 12.6 °C 11.3 °C 1020.2 hPa Calm     92 % 0.0 mm
04:32 12.7 °C 11.4 °C 1020.2 hPa Calm     92 % 0.0 mm
04:37 12.7 °C 11.4 °C 1020.2 hPa Calm     92 % 0.0 mm
04:42 12.7 °C 11.3 °C 1020.2 hPa Calm     91 % 0.0 mm
04:47 12.6 °C 11.2 °C 1020.2 hPa Calm     91 % 0.0 mm
04:52 12.5 °C 11.1 °C 1020.2 hPa Calm     91 % 0.0 mm
05:02 12.4 °C 11.1 °C 1020.2 hPa Calm     92 % 0.0 mm
05:12 12.1 °C 10.8 °C 1020.2 hPa Calm     92 % 0.0 mm
05:17 12.0 °C 10.7 °C 1020.2 hPa Calm     92 % 0.0 mm
05:22 11.9 °C 10.8 °C 1020.2 hPa Calm     93 % 0.0 mm
05:27 11.9 °C 10.8 °C 1020.2 hPa Calm     93 % 0.0 mm
05:32 11.7 °C 10.6 °C 1020.2 hPa Calm     93 % 0.0 mm
05:37 11.6 °C 10.5 °C 1020.2 hPa NW 1.6 km/h   93 % 0.0 mm
05:42 11.7 °C 10.8 °C 1020.5 hPa WNW 1.6 km/h 1.6 km/h 94 % 0.0 mm
05:47 11.8 °C 10.9 °C 1020.5 hPa Calm   1.6 km/h 94 % 0.0 mm
05:52 11.8 °C 10.9 °C 1020.5 hPa Calm   1.6 km/h 94 % 0.0 mm
05:57 11.8 °C 10.9 °C 1020.5 hPa Calm   1.6 km/h 94 % 0.0 mm
06:02 11.8 °C 10.7 °C 1020.5 hPa Calm   1.6 km/h 93 % 0.0 mm
06:07 11.6 °C 10.5 °C 1020.5 hPa Calm   1.6 km/h 93 % 0.0 mm
06:12 11.6 °C 10.7 °C 1020.5 hPa Calm   1.6 km/h 94 % 0.0 mm
06:17 11.6 °C 10.7 °C 1020.5 hPa Calm   1.6 km/h 94 % 0.0 mm
06:22 11.6 °C 10.7 °C 1020.5 hPa Calm   1.6 km/h 94 % 0.0 mm
06:32 11.9 °C 11.0 °C 1020.5 hPa Calm     94 % 0.0 mm
06:42 12.4 °C 11.5 °C 1020.5 hPa Calm   1.6 km/h 94 % 0.0 mm
06:47 12.8 °C 11.9 °C 1020.5 hPa Calm   1.6 km/h 94 % 0.0 mm
06:52 13.5 °C 12.4 °C 1020.5 hPa Calm   1.6 km/h 93 % 0.0 mm
06:57 13.7 °C 12.4 °C 1020.5 hPa Calm     92 % 0.0 mm
07:02 14.1 °C 12.7 °C 1020.5 hPa Calm     91 % 0.0 mm
07:12 14.7 °C 12.7 °C 1020.5 hPa Calm     88 % 0.0 mm
07:17 15.3 °C 13.1 °C 1020.5 hPa Calm     87 % 0.0 mm
07:22 15.8 °C 13.3 °C 1020.9 hPa Calm     85 % 0.0 mm
07:32 16.6 °C 13.1 °C 1020.9 hPa Calm     80 % 0.0 mm
07:37 16.7 °C 13.2 °C 1020.9 hPa Calm     80 % 0.0 mm
07:42 16.8 °C 13.3 °C 1020.9 hPa Calm   1.6 km/h 80 % 0.0 mm
07:47 16.7 °C 13.2 °C 1020.9 hPa Calm   1.6 km/h 80 % 0.0 mm
07:52 16.5 °C 13.4 °C 1020.9 hPa Calm   1.6 km/h 82 % 0.0 mm
07:57 16.3 °C 13.4 °C 1021.2 hPa Calm   1.6 km/h 83 % 0.0 mm
08:02 15.9 °C 13.4 °C 1021.2 hPa SSW 3.2 km/h 3.2 km/h 85 % 0.0 mm
08:07 15.8 °C 13.5 °C 1021.2 hPa Calm   4.8 km/h 86 % 0.0 mm
08:12 15.8 °C 13.6 °C 1021.2 hPa South 1.6 km/h 4.8 km/h 87 % 0.0 mm
08:17 15.9 °C 13.9 °C 1021.2 hPa Calm   6.4 km/h 88 % 0.0 mm
08:22 16.3 °C 14.3 °C 1021.2 hPa SW 1.6 km/h 6.4 km/h 88 % 0.0 mm
08:27 16.4 °C 14.2 °C 1021.2 hPa SSW 1.6 km/h 4.8 km/h 87 % 0.0 mm
08:32 16.5 °C 14.3 °C 1021.6 hPa Calm   4.8 km/h 87 % 0.0 mm
08:37 16.7 °C 14.5 °C 1021.2 hPa SE 4.8 km/h 6.4 km/h 87 % 0.0 mm
08:42 17.0 °C 14.6 °C 1021.2 hPa SW 1.6 km/h 6.4 km/h 86 % 0.0 mm
08:47 17.1 °C 14.6 °C 1021.2 hPa SW 8.0 km/h 8.0 km/h 85 % 0.0 mm
08:52 17.2 °C 14.7 °C 1021.6 hPa SSW 1.6 km/h 8.0 km/h 85 % 0.0 mm
08:57 17.3 °C 14.6 °C 1021.6 hPa SSW 3.2 km/h 8.0 km/h 84 % 0.0 mm
09:02 17.4 °C 14.7 °C 1021.6 hPa SSW 1.6 km/h 8.0 km/h 84 % 0.0 mm
09:07 17.7 °C 15.0 °C 1021.6 hPa SSW 3.2 km/h 8.0 km/h 84 % 0.0 mm
09:12 17.7 °C 14.8 °C 1021.6 hPa SW 4.8 km/h 8.0 km/h 83 % 0.0 mm
09:17 17.8 °C 14.9 °C 1021.6 hPa SW 3.2 km/h 9.7 km/h 83 % 0.0 mm
09:22 17.9 °C 15.0 °C 1021.6 hPa South 3.2 km/h 9.7 km/h 83 % 0.0 mm
09:27 18.0 °C 14.9 °C 1021.6 hPa West 1.6 km/h 9.7 km/h 82 % 0.0 mm
09:32 18.3 °C 15.2 °C 1021.6 hPa SW 1.6 km/h 9.7 km/h 82 % 0.0 mm
09:37 18.3 °C 14.8 °C 1021.6 hPa WSW 6.4 km/h 9.7 km/h 80 % 0.0 mm
09:42 18.4 °C 14.9 °C 1021.6 hPa South 3.2 km/h 9.7 km/h 80 % 0.0 mm
09:47 18.6 °C 15.1 °C 1021.6 hPa SSW 3.2 km/h 9.7 km/h 80 % 0.0 mm
09:52 19.1 °C 15.4 °C 1021.6 hPa SW 6.4 km/h 9.7 km/h 79 % 0.0 mm
09:57 19.2 °C 15.5 °C 1021.6 hPa SSE 3.2 km/h 9.7 km/h 79 % 0.0 mm
10:02 19.4 °C 15.5 °C 1021.6 hPa SW 1.6 km/h 9.7 km/h 78 % 0.0 mm
10:12 19.9 °C 14.9 °C 1021.6 hPa WSW 4.8 km/h 9.7 km/h 73 % 0.0 mm
10:17 19.8 °C 14.6 °C 1021.6 hPa SSW 8.0 km/h 11.3 km/h 72 % 0.0 mm
10:22 20.2 °C 15.0 °C 1021.6 hPa SW 6.4 km/h 11.3 km/h 72 % 0.0 mm
10:32 20.9 °C 14.8 °C 1021.6 hPa WSW 6.4 km/h 11.3 km/h 68 % 0.0 mm
10:37 21.1 °C 14.5 °C 1021.6 hPa ESE 1.6 km/h 9.7 km/h 66 % 0.0 mm
10:42 21.2 °C 14.4 °C 1021.6 hPa South 3.2 km/h 9.7 km/h 65 % 0.0 mm
10:47 21.4 °C 14.5 °C 1021.6 hPa SW 6.4 km/h 9.7 km/h 65 % 0.0 mm
10:52 21.6 °C 14.5 °C 1021.6 hPa SE 1.6 km/h 9.7 km/h 64 % 0.0 mm
10:57 21.6 °C 13.8 °C 1021.6 hPa WSW 4.8 km/h 11.3 km/h 61 % 0.0 mm
11:02 21.6 °C 14.0 °C 1021.6 hPa SSW 4.8 km/h 11.3 km/h 62 % 0.0 mm
11:07 21.8 °C 13.2 °C 1021.6 hPa SW 6.4 km/h 11.3 km/h 58 % 0.0 mm
11:12 21.7 °C 13.3 °C 1021.6 hPa Calm   11.3 km/h 59 % 0.0 mm
11:17 22.2 °C 13.8 °C 1021.9 hPa SSE 6.4 km/h 11.3 km/h 59 % 0.0 mm
11:27 22.6 °C 13.9 °C 1021.6 hPa SW 1.6 km/h 9.7 km/h 58 % 0.0 mm
11:32 22.7 °C 14.3 °C 1021.9 hPa WNW 6.4 km/h 9.7 km/h 59 % 0.0 mm
11:37 22.7 °C 14.3 °C 1021.6 hPa South 1.6 km/h 11.3 km/h 59 % 0.0 mm
11:42 22.7 °C 13.2 °C 1021.9 hPa WNW 3.2 km/h 11.3 km/h 55 % 0.0 mm
11:47 22.8 °C 13.8 °C 1021.9 hPa SE 3.2 km/h 9.7 km/h 57 % 0.0 mm
11:57 23.1 °C 13.6 °C 1021.6 hPa South 6.4 km/h 12.9 km/h 55 % 0.0 mm
12:02 23.1 °C 13.3 °C 1021.6 hPa Calm   12.9 km/h 54 % 0.0 mm
12:12 23.2 °C 13.9 °C 1021.6 hPa SW 9.7 km/h 9.7 km/h 56 % 0.0 mm
12:17 23.4 °C 13.0 °C 1021.6 hPa WSW 1.6 km/h 9.7 km/h 52 % 0.0 mm
12:22 23.5 °C 13.7 °C 1021.6 hPa SSW 3.2 km/h 9.7 km/h 54 % 0.0 mm
12:27 23.3 °C 13.5 °C 1021.6 hPa Calm   9.7 km/h 54 % 0.0 mm
12:32 23.7 °C 13.6 °C 1021.6 hPa SSW 1.6 km/h 9.7 km/h 53 % 0.0 mm
12:37 23.8 °C 13.1 °C 1021.6 hPa SW 9.7 km/h 9.7 km/h 51 % 0.0 mm
12:42 24.0 °C 13.2 °C 1021.6 hPa West 1.6 km/h 12.9 km/h 51 % 0.0 mm
12:52 23.5 °C 12.2 °C 1021.6 hPa SW 1.6 km/h 14.5 km/h 49 % 0.0 mm
12:57 23.6 °C 12.3 °C 1021.6 hPa SW 9.7 km/h 14.5 km/h 49 % 0.0 mm
13:02 23.8 °C 12.8 °C 1021.6 hPa SSW 9.7 km/h 12.9 km/h 50 % 0.0 mm
13:07 23.8 °C 12.1 °C 1021.6 hPa WSW 3.2 km/h 14.5 km/h 48 % 0.0 mm
13:12 24.1 °C 12.4 °C 1021.2 hPa SSW 1.6 km/h 14.5 km/h 48 % 0.0 mm
13:17 24.1 °C 12.1 °C 1021.2 hPa SSW 6.4 km/h 14.5 km/h 47 % 0.0 mm
13:22 24.2 °C 13.1 °C 1021.2 hPa SSW 8.0 km/h 14.5 km/h 50 % 0.0 mm
13:27 24.1 °C 12.1 °C 1021.2 hPa Calm   14.5 km/h 47 % 0.0 mm
13:32 24.3 °C 12.6 °C 1021.2 hPa SW 8.0 km/h 14.5 km/h 48 % 0.0 mm
13:42 24.6 °C 12.2 °C 1021.2 hPa East 1.6 km/h 12.9 km/h 46 % 0.0 mm
13:47 24.7 °C 12.0 °C 1021.2 hPa Calm   12.9 km/h 45 % 0.0 mm
13:52 25.1 °C 12.3 °C 1020.9 hPa SW 8.0 km/h 12.9 km/h 45 % 0.0 mm
14:02 24.9 °C 11.5 °C 1021.2 hPa SSW 3.2 km/h 16.1 km/h 43 % 0.0 mm
14:07 24.8 °C 10.7 °C 1020.9 hPa SSE 1.6 km/h 16.1 km/h 41 % 0.0 mm
14:12 25.1 °C 10.9 °C 1021.2 hPa West 4.8 km/h 14.5 km/h 41 % 0.0 mm
14:17 24.8 °C 11.0 °C 1021.2 hPa West 1.6 km/h 14.5 km/h 42 % 0.0 mm
14:23 24.8 °C 12.1 °C 1021.2 hPa SW 6.4 km/h 14.5 km/h 45 % 0.0 mm
14:32 25.4 °C 12.3 °C 1020.9 hPa SW 9.7 km/h 11.3 km/h 44 % 0.0 mm
14:37 25.1 °C 11.3 °C 1020.9 hPa Calm   12.9 km/h 42 % 0.0 mm
14:42 25.5 °C 11.6 °C 1020.9 hPa Calm   12.9 km/h 42 % 0.0 mm
14:47 25.8 °C 11.2 °C 1020.5 hPa West 4.8 km/h 12.9 km/h 40 % 0.0 mm
14:52 25.8 °C 11.9 °C 1020.9 hPa SW 8.0 km/h 12.9 km/h 42 % 0.0 mm
14:57 25.4 °C 11.2 °C 1020.9 hPa West 1.6 km/h 12.9 km/h 41 % 0.0 mm
15:02 25.6 °C 10.2 °C 1020.9 hPa SW 4.8 km/h 12.9 km/h 38 % 0.0 mm
15:12 26.0 °C 11.4 °C 1020.9 hPa South 4.8 km/h 9.7 km/h 40 % 0.0 mm
15:17 25.9 °C 12.0 °C 1020.9 hPa SW 9.7 km/h 12.9 km/h 42 % 0.0 mm
15:22 25.7 °C 11.8 °C 1020.5 hPa West 4.8 km/h 14.5 km/h 42 % 0.0 mm
15:32 25.7 °C 11.8 °C 1020.5 hPa WSW 4.8 km/h 14.5 km/h 42 % 0.0 mm
15:37 25.8 °C 11.9 °C 1020.5 hPa Calm   14.5 km/h 42 % 0.0 mm
15:42 26.2 °C 11.9 °C 1020.5 hPa WSW 3.2 km/h 14.5 km/h 41 % 0.0 mm
15:47 26.0 °C 12.1 °C 1020.5 hPa WSW 6.4 km/h 8.0 km/h 42 % 0.0 mm
15:52 26.2 °C 11.5 °C 1020.5 hPa SSW 4.8 km/h 12.9 km/h 40 % 0.0 mm
15:57 26.2 °C 11.9 °C 1020.5 hPa SE 1.6 km/h 12.9 km/h 41 % 0.0 mm
16:02 26.4 °C 11.7 °C 1020.5 hPa East 3.2 km/h 12.9 km/h 40 % 0.0 mm
16:07 26.3 °C 12.4 °C 1020.5 hPa Calm   12.9 km/h 42 % 0.0 mm
16:12 26.7 °C 12.0 °C 1020.2 hPa ENE 3.2 km/h 8.0 km/h 40 % 0.0 mm
16:22 26.9 °C 12.5 °C 1020.2 hPa SSE 6.4 km/h 6.4 km/h 41 % 0.0 mm
16:27 26.9 °C 12.5 °C 1020.5 hPa SW 4.8 km/h 9.7 km/h 41 % 0.0 mm
16:32 26.9 °C 11.4 °C 1020.5 hPa SW 4.8 km/h 9.7 km/h 38 % 0.0 mm
16:37 26.9 °C 11.8 °C 1020.2 hPa SSW 6.4 km/h 14.5 km/h 39 % 0.0 mm
16:42 27.1 °C 10.7 °C 1020.2 hPa SSW 1.6 km/h 14.5 km/h 36 % 0.0 mm
16:52 27.2 °C 11.2 °C 1020.2 hPa Calm   11.3 km/h 37 % 0.0 mm
17:02 27.2 °C 11.6 °C 1020.2 hPa South 1.6 km/h 11.3 km/h 38 % 0.0 mm
17:07 27.5 °C 12.3 °C 1020.2 hPa ESE 1.6 km/h 8.0 km/h 39 % 0.0 mm
17:12 27.4 °C 13.0 °C 1020.2 hPa SW 3.2 km/h 8.0 km/h 41 % 0.0 mm
17:17 27.4 °C 13.4 °C 1020.2 hPa Calm   8.0 km/h 42 % 0.0 mm
17:22 27.8 °C 13.3 °C 1020.2 hPa SW 6.4 km/h 8.0 km/h 41 % 0.0 mm
17:32 27.1 °C 12.3 °C 1020.2 hPa SW 3.2 km/h 6.4 km/h 40 % 0.0 mm
17:37 27.3 °C 13.3 °C 1019.9 hPa Calm   6.4 km/h 42 % 0.0 mm
17:42 27.4 °C 13.4 °C 1019.9 hPa SSW 1.6 km/h 6.4 km/h 42 % 0.0 mm
17:47 27.3 °C 12.9 °C 1019.9 hPa South 4.8 km/h 9.7 km/h 41 % 0.0 mm
17:52 27.3 °C 13.3 °C 1019.9 hPa SSE 3.2 km/h 9.7 km/h 42 % 0.0 mm
17:57 27.8 °C 13.7 °C 1019.9 hPa Calm   9.7 km/h 42 % 0.0 mm
18:02 27.6 °C 13.9 °C 1019.9 hPa ESE 4.8 km/h 9.7 km/h 43 % 0.0 mm
18:07 27.2 °C 13.2 °C 1019.9 hPa Calm   6.4 km/h 42 % 0.0 mm
18:12 27.6 °C 13.5 °C 1019.9 hPa WSW 3.2 km/h 6.4 km/h 42 % 0.0 mm
18:17 27.8 °C 13.3 °C 1019.9 hPa SW 3.2 km/h 6.4 km/h 41 % 0.0 mm
18:22 27.9 °C 13.8 °C 1019.9 hPa Calm   6.4 km/h 42 % 0.0 mm
18:32 27.6 °C 14.2 °C 1019.9 hPa Calm   6.4 km/h 44 % 0.0 mm
18:42 27.7 °C 13.3 °C 1019.9 hPa SSW 1.6 km/h 8.0 km/h 41 % 0.0 mm
18:47 27.6 °C 12.8 °C 1019.9 hPa SW 3.2 km/h 8.0 km/h 40 % 0.0 mm
18:52 27.4 °C 13.4 °C 1019.9 hPa Calm   8.0 km/h 42 % 0.0 mm
18:57 27.4 °C 13.4 °C 1019.9 hPa SW 4.8 km/h 8.0 km/h 42 % 0.0 mm
19:02 27.3 °C 13.3 °C 1019.9 hPa SSW 4.8 km/h 8.0 km/h 42 % 0.0 mm
19:07 27.2 °C 12.8 °C 1019.9 hPa NW 3.2 km/h 6.4 km/h 41 % 0.0 mm
19:12 27.3 °C 13.3 °C 1019.9 hPa WSW 1.6 km/h 6.4 km/h 42 % 0.0 mm
19:17 27.1 °C 12.7 °C 1019.9 hPa WSW 3.2 km/h 6.4 km/h 41 % 0.0 mm
19:22 27.3 °C 13.6 °C 1019.9 hPa Calm   6.4 km/h 43 % 0.0 mm
19:27 28.0 °C 13.9 °C 1019.9 hPa Calm   6.4 km/h 42 % 0.0 mm
19:32 28.4 °C 13.9 °C 1019.9 hPa Calm   6.4 km/h 41 % 0.0 mm
19:37 28.3 °C 13.4 °C 1019.9 hPa Calm   1.6 km/h 40 % 0.0 mm
19:42 27.6 °C 13.2 °C 1019.9 hPa SW 1.6 km/h 4.8 km/h 41 % 0.0 mm
19:47 27.5 °C 13.4 °C 1019.9 hPa Calm   4.8 km/h 42 % 0.0 mm
19:52 27.4 °C 12.6 °C 1019.9 hPa West 4.8 km/h 4.8 km/h 40 % 0.0 mm
19:57 27.3 °C 13.3 °C 1019.9 hPa West 1.6 km/h 4.8 km/h 42 % 0.0 mm
20:02 27.4 °C 12.6 °C 1019.9 hPa WNW 1.6 km/h 4.8 km/h 40 % 0.0 mm
20:07 27.2 °C 13.2 °C 1019.9 hPa Calm   4.8 km/h 42 % 0.0 mm
20:12 27.1 °C 13.1 °C 1019.9 hPa Calm   4.8 km/h 42 % 0.0 mm
20:17 27.4 °C 13.7 °C 1019.9 hPa Calm   4.8 km/h 43 % 0.0 mm
20:22 27.7 °C 13.3 °C 1019.9 hPa Calm   4.8 km/h 41 % 0.0 mm
20:32 27.8 °C 13.7 °C 1019.9 hPa Calm     42 % 0.0 mm
20:37 27.8 °C 13.3 °C 1019.9 hPa Calm     41 % 0.0 mm
20:42 28.2 °C 14.4 °C 1019.9 hPa Calm     43 % 0.0 mm
20:47 28.2 °C 14.4 °C 1019.9 hPa Calm     43 % 0.0 mm
20:52 27.9 °C 16.2 °C 1019.9 hPa Calm     49 % 0.0 mm
20:57 27.7 °C 16.0 °C 1019.9 hPa Calm     49 % 0.0 mm
21:02 27.7 °C 15.0 °C 1019.9 hPa Calm     46 % 0.0 mm
21:07 27.1 °C 15.8 °C 1019.9 hPa Calm     50 % 0.0 mm
21:12 26.9 °C 15.0 °C 1019.9 hPa Calm     48 % 0.0 mm
21:17 26.9 °C 14.6 °C 1019.9 hPa Calm     47 % 0.0 mm
21:22 26.6 °C 14.7 °C 1019.9 hPa Calm     48 % 0.0 mm
21:27 25.5 °C 14.9 °C 1019.9 hPa Calm     52 % 0.0 mm
21:32 24.5 °C 14.3 °C 1019.9 hPa Calm     53 % 0.0 mm
21:37 23.5 °C 13.4 °C 1019.9 hPa Calm     53 % 0.0 mm
21:42 22.8 °C 13.8 °C 1020.2 hPa Calm     57 % 0.0 mm
21:47 22.2 °C 13.0 °C 1020.2 hPa Calm     56 % 0.0 mm
21:57 21.9 °C 13.5 °C 1020.2 hPa Calm     59 % 0.0 mm
22:02 21.7 °C 13.8 °C 1020.2 hPa Calm     61 % 0.0 mm
22:07 21.3 °C 13.7 °C 1020.2 hPa Calm     62 % 0.0 mm
22:12 21.1 °C 14.0 °C 1020.2 hPa Calm     64 % 0.0 mm
22:17 20.7 °C 13.2 °C 1020.2 hPa Calm     62 % 0.0 mm
22:22 20.6 °C 13.6 °C 1020.2 hPa Calm     64 % 0.0 mm
22:27 20.4 °C 14.1 °C 1020.2 hPa Calm     67 % 0.0 mm
22:32 20.2 °C 13.9 °C 1020.2 hPa Calm     67 % 0.0 mm
22:37 20.1 °C 14.0 °C 1020.2 hPa Calm     68 % 0.0 mm
22:42 19.9 °C 13.8 °C 1020.5 hPa Calm     68 % 0.0 mm
22:47 20.0 °C 13.7 °C 1020.5 hPa Calm     67 % 0.0 mm
22:52 19.9 °C 13.8 °C 1020.5 hPa Calm     68 % 0.0 mm
22:57 19.8 °C 13.7 °C 1020.5 hPa Calm     68 % 0.0 mm
23:02 19.6 °C 13.8 °C 1020.5 hPa Calm     69 % 0.0 mm
23:07 19.6 °C 13.8 °C 1020.5 hPa Calm     69 % 0.0 mm
23:12 19.4 °C 13.8 °C 1020.5 hPa Calm     70 % 0.0 mm
23:17 19.1 °C 13.9 °C 1020.5 hPa Calm     72 % 0.0 mm
23:22 18.6 °C 13.9 °C 1020.5 hPa Calm     74 % 0.0 mm
23:27 18.4 °C 13.7 °C 1020.5 hPa Calm     74 % 0.0 mm
23:32 18.4 °C 13.7 °C 1020.5 hPa Calm     74 % 0.0 mm
23:37 18.3 °C 13.4 °C 1020.5 hPa Calm     73 % 0.0 mm
23:42 18.0 °C 13.5 °C 1020.5 hPa Calm     75 % 0.0 mm
23:47 17.9 °C 13.4 °C 1020.5 hPa Calm     75 % 0.0 mm
23:57 17.9 °C 13.4 °C 1020.5 hPa Calm     75 % 0.0 mm
Meteo18
Compliments of Weather Underground - 4 mb

Script developed by  Jim McMurry - jmcmurry@mwt.net Adapted for the template by  Wim van der Kuil - Leuven-Template.eu

You find our weather info also at:

European Weather Network

Weather Underground

Equipment we use:

Weather-station
Davis Vue

Weather-program
Meteohub

Weather-server
Raspberry PI 2 B+

Provider
1 and 1

Davis Vue

Meteohub

Raspberry PI 2 B+

1 and 1